Time;durP1;ratioP1;P1;durP2;ratioP2;P2;SDS_P1;SDS_P2;PMS_P1;PMS_P2;Temp;Humidity;BMP_temperature;BMP_pressure;BME280_temperature;BME280_humidity;BME280_pressure;Samples;Min_cycle;Max_cycle;Signal;HPM_P1;HPM_P2
2023/08/13 00:01:39;;;;;;;;;;;;;;;10.07;100.00;99865.53;5011912;28;19928;-94
2023/08/13 00:04:05;;;;;;;;;;;;;;;10.11;100.00;99864.53;4996598;28;20345;-86
2023/08/13 00:06:30;;;;;;;;;;;;;;;10.14;100.00;99864.41;4995805;28;19927;-86
2023/08/13 00:08:55;;;;;;;;;;;;;;;10.09;100.00;99867.22;4993503;28;19936;-89
2023/08/13 00:11:20;;;;;;;;;;;;;;;10.12;100.00;99867.09;5013537;28;19921;-89
2023/08/13 00:13:46;;;;;;;;;;;;;;;10.09;100.00;99863.72;4996124;28;19918;-87
2023/08/13 00:16:11;;;;;;;;;;;;;;;10.11;100.00;99859.22;5014115;28;19918;-91
2023/08/13 00:18:36;;;;;;;;;;;;;;;10.03;100.00;99856.88;5012515;28;20112;-88
2023/08/13 00:21:01;;;;;;;;;;;;;;;10.10;100.00;99857.50;4988959;28;19921;-90
2023/08/13 00:23:27;;;;;;;;;;;;;;;10.09;100.00;99851.34;5016638;28;19926;-88
2023/08/13 00:25:52;;;;;;;;;;;;;;;10.14;100.00;99861.75;5015416;28;19929;-89
2023/08/13 00:28:18;;;;;;;;;;;;;;;10.01;100.00;99858.72;4998470;28;19969;-92
2023/08/13 00:30:43;;;;;;;;;;;;;;;10.05;100.00;99848.88;4996245;28;19956;-86
2023/08/13 00:33:08;;;;;;;;;;;;;;;10.12;100.00;99847.72;5013880;28;19922;-86
2023/08/13 00:35:33;;;;;;;;;;;;;;;10.07;100.00;99852.31;4995352;28;19991;-88
2023/08/13 00:37:59;;;;;;;;;;;;;;;10.12;100.00;99850.38;4996970;28;19980;-90
2023/08/13 00:40:24;;;;;;;;;;;;;;;10.06;100.00;99843.53;4998502;28;20325;-88
2023/08/13 00:42:49;;;;;;;;;;;;;;;10.06;100.00;99847.97;4996995;28;19917;-90
2023/08/13 00:45:15;;;;;;;;;;;;;;;10.10;100.00;99852.19;4997775;28;20023;-96
2023/08/13 00:47:40;;;;;;;;;;;;;;;10.05;100.00;99838.28;5013555;28;19928;-89
2023/08/13 00:50:06;;;;;;;;;;;;;;;10.07;100.00;99857.59;4995916;28;19932;-89
2023/08/13 00:52:32;;;;;;;;;;;;;;;10.09;100.00;99853.13;4993323;28;19967;-89
2023/08/13 00:54:57;;;;;;;;;;;;;;;10.00;100.00;99852.59;4995254;28;20021;-86
2023/08/13 00:57:23;;;;;;;;;;;;;;;10.03;100.00;99851.56;5012365;28;20008;-86
2023/08/13 00:59:49;;;;;;;;;;;;;;;10.02;100.00;99862.22;4993901;28;20011;-88
2023/08/13 01:02:15;;;;;;;;;;;;;;;9.99;100.00;99855.28;4994030;28;19968;-87
2023/08/13 08:20:02;;;;;;;;;;;;;;;9.57;100.00;99870.09;5633846;23;19991;-84
2023/08/13 08:22:28;;;;;;;;;;;;;;;9.58;100.00;99866.53;5013692;28;19929;-86
2023/08/13 08:24:54;;;;;;;;;;;;;;;9.67;100.00;99856.50;5032239;28;20368;-86
2023/08/13 08:27:19;;;;;;;;;;;;;;;9.51;100.00;99858.88;5014550;28;19921;-84
2023/08/13 08:29:44;;;;;;;;;;;;;;;9.54;100.00;99857.00;5025950;28;20317;-85
2023/08/13 08:32:09;;;;;;;;;;;;;;;9.53;100.00;99857.91;5014320;28;19928;-86
2023/08/13 08:34:35;;;;;;;;;;;;;;;9.60;100.00;99856.75;5013052;28;19963;-85
2023/08/13 08:37:00;;;;;;;;;;;;;;;9.55;100.00;99856.06;5014398;28;20443;-85
2023/08/13 08:39:25;;;;;;;;;;;;;;;9.57;100.00;99853.34;5032018;28;20388;-86
2023/08/13 08:41:54;;;;;;;;;;;;;;;9.67;100.00;99849.47;5025897;28;19928;-84
2023/08/13 08:44:23;;;;;;;;;;;;;;;9.61;100.00;99845.25;5031878;28;19924;-84
2023/08/13 08:46:49;;;;;;;;;;;;;;;9.59;100.00;99849.75;5031859;28;20319;-84
2023/08/13 08:49:16;;;;;;;;;;;;;;;9.67;100.00;99853.88;5030488;28;20079;-83
2023/08/13 08:51:41;;;;;;;;;;;;;;;9.64;100.00;99850.44;5013428;28;19925;-84
2023/08/13 08:54:06;;;;;;;;;;;;;;;9.61;100.00;99858.47;5031856;28;19921;-83
2023/08/13 08:56:32;;;;;;;;;;;;;;;9.74;100.00;99848.28;5031828;28;19967;-84
2023/08/13 08:58:57;;;;;;;;;;;;;;;9.66;100.00;99844.22;5031621;28;19921;-85
2023/08/13 09:01:22;;;;;;;;;;;;;;;9.70;100.00;99851.09;5014009;28;19921;-84
2023/08/13 09:03:47;;;;;;;;;;;;;;;9.75;100.00;99857.09;5030416;28;19956;-85
2023/08/13 09:06:13;;;;;;;;;;;;;;;9.78;100.00;99849.03;5032344;28;19967;-90
2023/08/13 09:08:38;;;;;;;;;;;;;;;9.76;100.00;99853.53;5031815;28;20376;-86
2023/08/13 09:11:03;;;;;;;;;;;;;;;9.75;100.00;99849.16;5031676;28;19917;-84
2023/08/13 09:13:28;;;;;;;;;;;;;;;9.77;100.00;99850.81;5013915;28;19921;-85
2023/08/13 09:15:54;;;;;;;;;;;;;;;9.79;100.00;99856.06;5014198;28;19967;-84
2023/08/13 09:18:19;;;;;;;;;;;;;;;9.69;100.00;99849.41;5031524;28;19917;-87
2023/08/13 09:20:45;;;;;;;;;;;;;;;9.75;100.00;99846.53;5030469;28;19925;-83
2023/08/13 09:23:11;;;;;;;;;;;;;;;9.81;100.00;99840.97;5030602;28;20288;-83
2023/08/13 09:25:37;;;;;;;;;;;;;;;9.74;100.00;99832.41;5031789;28;19917;-83
2023/08/13 09:28:02;;;;;;;;;;;;;;;9.79;100.00;99826.94;5031895;28;19925;-84
2023/08/13 09:30:31;;;;;;;;;;;;;;;9.85;100.00;99821.41;5009279;28;19941;-85
2023/08/13 09:32:57;;;;;;;;;;;;;;;9.82;100.00;99827.69;5031057;28;19921;-86
2023/08/13 09:35:22;;;;;;;;;;;;;;;9.88;100.00;99821.28;5030127;28;20494;-84
2023/08/13 09:37:48;;;;;;;;;;;;;;;9.88;100.00;99820.44;5013651;28;20004;-86
2023/08/13 09:40:13;;;;;;;;;;;;;;;9.85;100.00;99817.91;5016673;28;19924;-84
2023/08/13 09:42:39;;;;;;;;;;;;;;;9.75;100.00;99818.28;5035068;28;20287;-84
2023/08/13 09:45:06;;;;;;;;;;;;;;;9.75;100.00;99806.84;5016545;28;20003;-84
2023/08/13 09:47:35;;;;;;;;;;;;;;;9.85;100.00;99802.88;5017015;28;20431;-87
2023/08/13 09:50:01;;;;;;;;;;;;;;;9.90;100.00;99816.78;5033776;28;20348;-87
2023/08/13 09:52:27;;;;;;;;;;;;;;;9.86;100.00;99816.97;5018072;28;20007;-85
2023/08/13 09:54:59;;;;;;;;;;;;;;;9.86;100.00;99807.28;5036211;28;20007;-84
2023/08/13 09:57:25;;;;;;;;;;;;;;;9.83;100.00;99807.38;5036150;28;19917;-86
2023/08/13 09:59:51;;;;;;;;;;;;;;;9.82;100.00;99813.59;5035041;28;20011;-87
2023/08/13 10:02:18;;;;;;;;;;;;;;;9.71;100.00;99807.84;5035090;28;20019;-86
2023/08/13 10:04:44;;;;;;;;;;;;;;;9.82;100.00;99803.00;5033324;28;19979;-90
2023/08/13 12:54:52;;;;;;;;;;;;;;;9.78;100.00;99674.38;5342567;23;20027;-91
2023/08/13 12:57:20;;;;;;;;;;;;;;;9.77;100.00;99670.88;5014835;28;19972;-92
2023/08/13 12:59:45;;;;;;;;;;;;;;;9.78;100.00;99674.38;5033895;28;19924;-90
2023/08/13 13:02:11;;;;;;;;;;;;;;;9.81;100.00;99679.53;5033572;28;19917;-88
2023/08/13 13:04:36;;;;;;;;;;;;;;;9.79;100.00;99676.13;5014544;28;19932;-88
2023/08/13 13:07:01;;;;;;;;;;;;;;;9.89;100.00;99680.13;5015811;28;19960;-87
2023/08/13 13:09:26;;;;;;;;;;;;;;;9.88;100.00;99683.69;5014214;28;19921;-88
2023/08/13 13:11:52;;;;;;;;;;;;;;;9.87;100.00;99676.66;5016906;28;20291;-91
2023/08/13 13:14:17;;;;;;;;;;;;;;;9.86;100.00;99677.59;5017388;28;19917;-87
2023/08/13 13:16:42;;;;;;;;;;;;;;;9.84;100.00;99674.13;5036374;28;19963;-91
2023/08/13 13:19:07;;;;;;;;;;;;;;;9.86;100.00;99677.59;5021695;28;19924;-87
2023/08/13 13:21:33;;;;;;;;;;;;;;;9.95;100.00;99674.53;5018925;28;20376;-92
2023/08/13 13:23:58;;;;;;;;;;;;;;;9.95;100.00;99673.69;5016945;28;20023;-90
2023/08/13 13:26:23;;;;;;;;;;;;;;;9.88;100.00;99670.44;5016731;28;19920;-87
2023/08/13 13:28:49;;;;;;;;;;;;;;;9.92;100.00;99669.38;5015078;28;19925;-87
2023/08/13 13:31:14;;;;;;;;;;;;;;;9.89;100.00;99674.81;4996911;28;19921;-93
2023/08/13 13:33:39;;;;;;;;;;;;;;;9.88;100.00;99678.38;4998033;28;19929;-91
2023/08/13 13:36:07;;;;;;;;;;;;;;;9.97;100.00;99672.72;4998791;28;19964;-92
2023/08/13 13:38:32;;;;;;;;;;;;;;;9.94;100.00;99672.84;5014130;28;20299;-89
2023/08/13 13:40:57;;;;;;;;;;;;;;;9.97;100.00;99666.53;5012713;28;19921;-91
2023/08/13 13:43:23;;;;;;;;;;;;;;;9.94;100.00;99664.00;4995955;28;19948;-89
2023/08/13 13:45:48;;;;;;;;;;;;;;;9.92;100.00;99658.78;4998260;28;19918;-89
2023/08/13 13:48:13;;;;;;;;;;;;;;;12.43;100.00;99659.44;5016280;28;20339;-87
2023/08/13 13:50:39;;;;;;;;;;;;;;;11.78;100.00;99672.47;4997997;28;19932;-87
2023/08/13 13:53:04;;;;;;;;;;;;;;;10.46;100.00;99663.59;4995732;28;20004;-89
2023/08/13 13:55:29;;;;;;;;;;;;;;;10.02;100.00;99658.41;5014683;28;19921;-89
2023/08/13 13:57:54;;;;;;;;;;;;;;;9.89;100.00;99660.72;5011605;28;20494;-83
2023/08/13 14:00:20;;;;;;;;;;;;;;;9.74;100.00;99659.56;4996294;28;19929;-88
2023/08/13 14:02:45;;;;;;;;;;;;;;;9.58;100.00;99657.53;5016804;28;19918;-88
2023/08/13 14:05:10;;;;;;;;;;;;;;;9.51;100.00;99655.22;5015806;28;19925;-92
2023/08/13 14:07:36;;;;;;;;;;;;;;;9.48;100.00;99648.28;5014263;28;19960;-90
2023/08/13 14:10:02;;;;;;;;;;;;;;;9.41;100.00;99649.44;4998904;28;19917;-86
2023/08/13 14:12:28;;;;;;;;;;;;;;;9.40;100.00;99650.38;4997304;28;19918;-88
2023/08/13 14:14:53;;;;;;;;;;;;;;;9.30;100.00;99641.91;5014220;28;19925;-85
2023/08/13 14:17:19;;;;;;;;;;;;;;;9.40;100.00;99642.44;5014161;28;19925;-85
2023/08/13 14:19:44;;;;;;;;;;;;;;;9.36;100.00;99635.53;5012523;28;19925;-87
2023/08/13 14:22:10;;;;;;;;;;;;;;;9.30;100.00;99639.28;5008843;28;19975;-86
2023/08/13 14:24:35;;;;;;;;;;;;;;;9.17;100.00;99632.78;4992252;28;20419;-85
2023/08/13 14:27:00;;;;;;;;;;;;;;;9.35;100.00;99621.47;5012205;28;20024;-88
2023/08/13 14:29:25;;;;;;;;;;;;;;;9.23;100.00;99629.88;5012431;28;20337;-87
2023/08/13 14:31:53;;;;;;;;;;;;;;;9.27;100.00;99624.41;5012779;28;19929;-87
2023/08/13 14:34:24;;;;;;;;;;;;;;;9.22;100.00;99622.88;4996670;28;20332;-87
2023/08/13 14:36:49;;;;;;;;;;;;;;;9.15;100.00;99624.91;5010813;28;19929;-89
2023/08/13 14:39:17;;;;;;;;;;;;;;;9.19;100.00;99623.88;4996380;28;19924;-88
2023/08/13 14:41:42;;;;;;;;;;;;;;;9.18;100.00;99616.00;4994811;28;19921;-88
2023/08/13 14:44:07;;;;;;;;;;;;;;;9.23;100.00;99609.59;5013498;28;19926;-87
2023/08/13 14:46:33;;;;;;;;;;;;;;;9.21;100.00;99610.59;5013100;28;19922;-84
2023/08/13 14:49:04;;;;;;;;;;;;;;;9.24;100.00;99608.69;5014878;28;19933;-90
2023/08/13 14:51:47;;;;;;;;;;;;;;;9.23;100.00;99611.38;5013013;28;20020;-90
2023/08/13 14:54:12;;;;;;;;;;;;;;;9.14;100.00;99615.22;5011886;28;19921;-86
2023/08/13 14:56:38;;;;;;;;;;;;;;;9.13;100.00;99610.03;5013850;28;19932;-87
2023/08/13 14:59:03;;;;;;;;;;;;;;;9.14;100.00;99604.66;4996767;28;19921;-86
2023/08/13 15:01:28;;;;;;;;;;;;;;;9.08;100.00;99603.13;4997028;28;20385;-87
2023/08/13 15:03:54;;;;;;;;;;;;;;;9.13;100.00;99602.97;4996890;28;19922;-87
2023/08/13 15:06:19;;;;;;;;;;;;;;;9.21;100.00;99605.31;4997016;28;19917;-85
2023/08/13 15:08:44;;;;;;;;;;;;;;;9.09;100.00;99609.28;4994645;28;19947;-86
2023/08/13 15:11:10;;;;;;;;;;;;;;;9.19;100.00;99600.06;5013345;28;19926;-87
2023/08/13 15:13:35;;;;;;;;;;;;;;;9.13;100.00;99600.31;5012955;28;19913;-87
2023/08/13 15:16:00;;;;;;;;;;;;;;;9.13;100.00;99597.66;5014382;28;19922;-87
2023/08/13 15:18:25;;;;;;;;;;;;;;;9.09;100.00;99598.69;5013911;28;19925;-88
2023/08/13 15:20:51;;;;;;;;;;;;;;;9.06;100.00;99598.81;5014928;28;19932;-88
2023/08/13 15:23:16;;;;;;;;;;;;;;;9.22;100.00;99601.72;5015954;28;19925;-94
2023/08/13 15:25:42;;;;;;;;;;;;;;;9.12;100.00;99598.59;5012573;28;20427;-88
2023/08/13 15:28:08;;;;;;;;;;;;;;;9.07;100.00;99606.69;4995957;28;20316;-88
2023/08/13 15:30:33;;;;;;;;;;;;;;;9.07;100.00;99598.75;4996172;28;20372;-87
2023/08/13 15:32:58;;;;;;;;;;;;;;;9.10;100.00;99595.16;4995478;28;19944;-87
2023/08/13 15:35:23;;;;;;;;;;;;;;;9.05;100.00;99589.19;4994842;28;19964;-88
2023/08/13 15:37:49;;;;;;;;;;;;;;;9.15;100.00;99590.53;4991561;28;20390;-86
2023/08/13 15:40:15;;;;;;;;;;;;;;;9.20;100.00;99580.63;4995591;28;20453;-86
2023/08/13 15:42:41;;;;;;;;;;;;;;;9.17;100.00;99583.38;4997123;28;19925;-85
2023/08/13 15:45:06;;;;;;;;;;;;;;;9.16;100.00;99578.16;4998751;28;19924;-86
2023/08/13 15:47:31;;;;;;;;;;;;;;;9.06;100.00;99582.97;4997339;28;20367;-88
2023/08/13 15:49:59;;;;;;;;;;;;;;;9.07;100.00;99574.97;4999471;28;19988;-93
2023/08/13 15:52:24;;;;;;;;;;;;;;;9.15;100.00;99574.66;4999722;28;19975;-87
2023/08/13 15:54:50;;;;;;;;;;;;;;;9.15;100.00;99569.38;4998700;28;20278;-89
2023/08/13 15:57:16;;;;;;;;;;;;;;;9.12;100.00;99572.16;4995949;28;19929;-90
2023/08/13 15:59:41;;;;;;;;;;;;;;;9.11;100.00;99572.22;4994636;28;19924;-88
2023/08/13 16:02:06;;;;;;;;;;;;;;;9.08;100.00;99575.84;4997754;28;19927;-88
2023/08/13 16:04:32;;;;;;;;;;;;;;;9.08;100.00;99568.78;4996687;28;19956;-88
2023/08/13 16:06:57;;;;;;;;;;;;;;;9.11;100.00;99570.44;4997009;28;20016;-88
2023/08/13 16:09:22;;;;;;;;;;;;;;;9.12;100.00;99572.16;5012564;28;19979;-88
2023/08/13 16:11:48;;;;;;;;;;;;;;;9.16;100.00;99573.75;5015390;28;19937;-91
2023/08/13 16:14:13;;;;;;;;;;;;;;;9.08;100.00;99581.16;4998583;28;20428;-89
2023/08/13 16:16:38;;;;;;;;;;;;;;;9.06;100.00;99575.03;4995793;28;19925;-89
2023/08/13 16:19:04;;;;;;;;;;;;;;;9.07;100.00;99574.13;4997197;28;19975;-91
2023/08/13 16:21:29;;;;;;;;;;;;;;;9.13;100.00;99573.88;5017588;28;19918;-89
2023/08/13 16:23:55;;;;;;;;;;;;;;;9.06;100.00;99578.56;4997417;28;19922;-88
2023/08/13 16:26:20;;;;;;;;;;;;;;;9.12;100.00;99577.44;5018910;28;19918;-87
2023/08/13 16:28:45;;;;;;;;;;;;;;;8.98;100.00;99582.41;4997013;28;19921;-88
2023/08/13 16:31:10;;;;;;;;;;;;;;;9.00;100.00;99577.91;5016473;28;20326;-91
2023/08/13 16:33:36;;;;;;;;;;;;;;;8.99;100.00;99576.22;5018495;28;19952;-90
2023/08/13 16:36:01;;;;;;;;;;;;;;;9.06;100.00;99572.38;4998817;28;20004;-88
2023/08/13 16:38:27;;;;;;;;;;;;;;;8.98;100.00;99570.06;4998424;28;19968;-88
2023/08/13 16:40:52;;;;;;;;;;;;;;;8.97;100.00;99572.78;5014987;28;19918;-89
2023/08/13 16:43:17;;;;;;;;;;;;;;;9.01;100.00;99569.06;4998707;28;20460;-88
2023/08/13 16:45:44;;;;;;;;;;;;;;;9.06;100.00;99565.34;5019484;28;20277;-87
2023/08/13 16:48:09;;;;;;;;;;;;;;;9.03;100.00;99567.22;5001336;28;19945;-92
2023/08/13 16:50:34;;;;;;;;;;;;;;;8.95;100.00;99571.97;5002069;28;19921;-90
2023/08/13 16:53:02;;;;;;;;;;;;;;;8.96;100.00;99571.91;5000647;28;19922;-89
2023/08/13 16:55:46;;;;;;;;;;;;;;;8.98;100.00;99574.47;5018502;28;19932;-89
2023/08/13 16:58:11;;;;;;;;;;;;;;;8.95;100.00;99572.84;5016814;28;19921;-89
2023/08/13 17:00:38;;;;;;;;;;;;;;;8.93;100.00;99566.72;4999442;28;19984;-88
2023/08/13 17:03:03;;;;;;;;;;;;;;;8.98;100.00;99570.06;5015960;28;20387;-87
2023/08/13 17:05:29;;;;;;;;;;;;;;;9.08;100.00;99573.22;4999173;28;19925;-91
2023/08/13 17:07:54;;;;;;;;;;;;;;;9.00;100.00;99570.00;4999216;28;19917;-91
2023/08/13 17:10:19;;;;;;;;;;;;;;;10.31;100.00;99573.25;4996816;28;19933;-85
2023/08/13 17:12:45;;;;;;;;;;;;;;;9.36;100.00;99566.78;4997585;28;19921;-86
2023/08/13 17:15:10;;;;;;;;;;;;;;;9.27;100.00;99566.25;4996974;28;20353;-86
2023/08/13 17:17:35;;;;;;;;;;;;;;;9.19;100.00;99568.34;4997781;28;19922;-87
2023/08/13 17:20:01;;;;;;;;;;;;;;;9.11;100.00;99559.88;5015679;28;20284;-88
2023/08/13 17:22:26;;;;;;;;;;;;;;;9.11;100.00;99570.44;5015872;28;20008;-88
2023/08/13 17:24:52;;;;;;;;;;;;;;;9.12;100.00;99561.56;4996453;28;20021;-86
2023/08/13 17:27:17;;;;;;;;;;;;;;;9.07;100.00;99568.84;4998112;28;20004;-89
2023/08/13 17:29:42;;;;;;;;;;;;;;;9.09;100.00;99559.94;4997018;28;20438;-88
2023/08/13 17:32:09;;;;;;;;;;;;;;;9.17;100.00;99564.03;4997499;28;19964;-86
2023/08/13 17:34:34;;;;;;;;;;;;;;;9.07;100.00;99558.25;4996891;28;19926;-89
2023/08/13 17:37:00;;;;;;;;;;;;;;;9.08;100.00;99565.28;4993619;28;19921;-88
2023/08/13 17:39:26;;;;;;;;;;;;;;;9.11;100.00;99559.00;4997358;28;20004;-86
2023/08/13 17:41:51;;;;;;;;;;;;;;;9.08;100.00;99562.63;5010519;28;20376;-87
2023/08/13 17:44:17;;;;;;;;;;;;;;;9.11;100.00;99559.88;4997799;28;19928;-90
2023/08/13 17:46:42;;;;;;;;;;;;;;;9.08;100.00;99563.50;4998154;28;19921;-88
2023/08/13 17:49:07;;;;;;;;;;;;;;;9.13;100.00;99562.47;4992668;28;19921;-88
2023/08/13 17:51:32;;;;;;;;;;;;;;;9.01;100.00;99567.28;5013732;28;20016;-87
2023/08/13 17:53:58;;;;;;;;;;;;;;;9.09;100.00;99573.16;4995429;28;19921;-88
2023/08/13 17:56:23;;;;;;;;;;;;;;;9.12;100.00;99566.88;5014427;28;20369;-87
2023/08/13 17:58:48;;;;;;;;;;;;;;;9.05;100.00;99565.41;4996733;28;19926;-90
2023/08/13 18:01:14;;;;;;;;;;;;;;;9.05;100.00;99571.53;4997198;28;19917;-87
2023/08/13 18:03:39;;;;;;;;;;;;;;;9.09;100.00;99566.97;4995868;28;20258;-89
2023/08/13 18:06:04;;;;;;;;;;;;;;;9.08;100.00;99576.72;5014238;28;20016;-87
2023/08/13 18:08:30;;;;;;;;;;;;;;;9.08;100.00;99571.41;4994982;28;19922;-86
2023/08/13 18:10:55;;;;;;;;;;;;;;;9.03;100.00;99578.69;5013764;28;19926;-85
2023/08/13 18:13:20;;;;;;;;;;;;;;;9.08;100.00;99581.16;4996173;28;19922;-88
2023/08/13 18:15:48;;;;;;;;;;;;;;;8.99;100.00;99577.06;4995412;28;19992;-86
2023/08/13 18:18:13;;;;;;;;;;;;;;;8.97;100.00;99578.91;5009611;28;20383;-83
2023/08/13 18:20:39;;;;;;;;;;;;;;;9.00;100.00;99583.19;4993059;28;19930;-89
2023/08/13 18:23:04;;;;;;;;;;;;;;;8.91;100.00;99573.88;4994314;28;19926;-88
2023/08/13 18:25:30;;;;;;;;;;;;;;;9.03;100.00;99583.09;5011755;28;19929;-89
2023/08/13 18:27:55;;;;;;;;;;;;;;;9.05;100.00;99582.13;5011020;28;19925;-86
2023/08/13 18:30:20;;;;;;;;;;;;;;;9.04;100.00;99582.16;5013810;28;19922;-86
2023/08/13 18:32:46;;;;;;;;;;;;;;;8.98;100.00;99591.19;4995852;28;20316;-89
2023/08/13 18:35:11;;;;;;;;;;;;;;;9.04;100.00;99592.75;5011941;28;19929;-94
2023/08/13 18:37:36;;;;;;;;;;;;;;;8.93;100.00;99587.88;4996544;28;19944;-92
2023/08/13 18:40:02;;;;;;;;;;;;;;;9.00;100.00;99589.38;4997493;28;19960;-90
2023/08/13 18:42:28;;;;;;;;;;;;;;;8.97;100.00;99601.84;4997284;28;20401;-91
2023/08/13 18:44:53;;;;;;;;;;;;;;;9.01;100.00;99600.78;5012238;28;19926;-95
2023/08/13 18:47:18;;;;;;;;;;;;;;;9.09;100.00;99610.16;5013590;28;19944;-94
2023/08/13 18:49:44;;;;;;;;;;;;;;;9.02;100.00;99607.81;5014537;28;19918;-86
2023/08/13 18:52:09;;;;;;;;;;;;;;;9.07;100.00;99606.69;5015578;28;19925;-93
2023/08/13 18:54:34;;;;;;;;;;;;;;;9.06;100.00;99612.91;5015456;28;20479;-95
2023/08/13 18:56:59;;;;;;;;;;;;;;;9.08;100.00;99612.84;4996771;28;19921;-92
2023/08/13 18:59:25;;;;;;;;;;;;;;;9.03;100.00;99610.41;4998273;28;19921;-88
2023/08/13 19:01:50;;;;;;;;;;;;;;;9.03;100.00;99617.44;4997863;28;20407;-95
2023/08/13 19:04:15;;;;;;;;;;;;;;;9.09;100.00;99630.41;4996848;28;19988;-92
2023/08/13 19:06:40;;;;;;;;;;;;;;;9.02;100.00;99629.81;4997540;28;19914;-86
2023/08/13 19:09:06;;;;;;;;;;;;;;;9.01;100.00;99628.06;4997081;28;20482;-88
2023/08/13 19:11:31;;;;;;;;;;;;;;;9.04;100.00;99619.19;5015156;28;19921;-88
2023/08/13 19:13:56;;;;;;;;;;;;;;;9.03;100.00;99620.09;4995291;28;20770;-87
2023/08/13 19:16:21;;;;;;;;;;;;;;;9.01;100.00;99624.56;5013494;28;19961;-85
2023/08/13 19:18:47;;;;;;;;;;;;;;;9.03;100.00;99622.72;4991707;28;19924;-88
2023/08/13 19:21:15;;;;;;;;;;;;;;;8.99;100.00;99629.06;4998036;28;19963;-84
2023/08/13 19:23:40;;;;;;;;;;;;;;;9.00;100.00;99634.28;4993953;28;19991;-90
2023/08/13 19:26:05;;;;;;;;;;;;;;;9.08;100.00;99628.72;4995326;28;20262;-85
2023/08/13 19:28:31;;;;;;;;;;;;;;;8.99;100.00;99634.34;5009222;28;20199;-89
2023/08/13 19:30:56;;;;;;;;;;;;;;;8.97;100.00;99636.22;4995058;28;19972;-87
2023/08/13 19:33:21;;;;;;;;;;;;;;;8.96;100.00;99637.13;5013687;28;19979;-87
2023/08/13 19:35:47;;;;;;;;;;;;;;;9.04;100.00;99638.53;5013943;28;19925;-87
2023/08/13 19:38:12;;;;;;;;;;;;;;;8.96;100.00;99640.59;4994694;28;19921;-86
2023/08/13 19:40:38;;;;;;;;;;;;;;;8.95;100.00;99649.47;4995109;28;19921;-87
2023/08/13 19:43:04;;;;;;;;;;;;;;;9.02;100.00;99640.38;5012354;28;19933;-87
2023/08/13 19:45:29;;;;;;;;;;;;;;;8.89;100.00;99639.13;4996107;28;19925;-90
2023/08/13 19:47:54;;;;;;;;;;;;;;;8.91;100.00;99643.44;4995647;28;19972;-88
2023/08/13 19:50:20;;;;;;;;;;;;;;;8.86;100.00;99640.09;5013092;28;20016;-89
2023/08/13 19:52:45;;;;;;;;;;;;;;;8.93;100.00;99643.38;4995033;28;19963;-90
2023/08/13 19:55:10;;;;;;;;;;;;;;;8.92;100.00;99649.59;5011734;28;19932;-86
2023/08/13 19:57:36;;;;;;;;;;;;;;;8.92;100.00;99654.88;4995623;28;19932;-86
2023/08/13 20:00:02;;;;;;;;;;;;;;;8.83;100.00;99653.44;5012754;28;19925;-89
2023/08/13 20:02:27;;;;;;;;;;;;;;;8.81;100.00;99646.50;4995240;28;19944;-88
2023/08/13 20:04:52;;;;;;;;;;;;;;;8.82;100.00;99645.56;4995277;28;19987;-88
2023/08/13 20:07:18;;;;;;;;;;;;;;;8.81;100.00;99651.78;5012615;28;19929;-91
2023/08/13 20:09:43;;;;;;;;;;;;;;;8.82;100.00;99656.13;4995856;28;19922;-92
2023/08/13 20:12:08;;;;;;;;;;;;;;;8.78;100.00;99652.75;5013651;28;19922;-92
2023/08/13 20:14:33;;;;;;;;;;;;;;;8.73;100.00;99652.06;4995453;28;20319;-90
2023/08/13 20:16:59;;;;;;;;;;;;;;;8.73;100.00;99650.28;5012996;28;19929;-88
2023/08/13 20:19:24;;;;;;;;;;;;;;;8.75;100.00;99652.88;4995196;28;19984;-87
2023/08/13 20:21:53;;;;;;;;;;;;;;;8.77;100.00;99651.00;4995364;28;19976;-89
2023/08/13 20:24:19;;;;;;;;;;;;;;;8.71;100.00;99654.75;5010365;28;19918;-93
2023/08/13 20:26:44;;;;;;;;;;;;;;;8.68;100.00;99651.34;5012896;28;20385;-91
2023/08/13 20:29:10;;;;;;;;;;;;;;;8.66;100.00;99642.63;4995415;28;19968;-89
2023/08/13 20:31:35;;;;;;;;;;;;;;;8.66;100.00;99642.63;5012888;28;19971;-88
2023/08/13 20:34:01;;;;;;;;;;;;;;;8.69;100.00;99647.81;5012594;28;19922;-88
2023/08/13 20:36:26;;;;;;;;;;;;;;;8.60;100.00;99641.09;4994870;28;19929;-87
2023/08/13 20:38:51;;;;;;;;;;;;;;;8.69;100.00;99645.16;4992546;28;19948;-88
2023/08/13 20:41:17;;;;;;;;;;;;;;;8.75;100.00;99652.88;4994744;28;19918;-93
2023/08/13 20:43:42;;;;;;;;;;;;;;;8.64;100.00;99655.91;4994698;28;19924;-93
2023/08/13 20:46:07;;;;;;;;;;;;;;;8.68;100.00;99659.28;5012716;28;19944;-85
2023/08/13 20:48:33;;;;;;;;;;;;;;;8.71;100.00;99659.16;5012495;28;19921;-87
2023/08/13 20:50:58;;;;;;;;;;;;;;;8.64;100.00;99658.53;5011666;28;19921;-87
2023/08/13 20:53:24;;;;;;;;;;;;;;;8.63;100.00;99669.16;4992820;28;19925;-89
2023/08/13 20:55:49;;;;;;;;;;;;;;;8.67;100.00;99670.78;4992870;28;19925;-88
2023/08/13 20:58:16;;;;;;;;;;;;;;;8.62;100.00;99664.81;5012203;28;19921;-88
2023/08/13 21:00:41;;;;;;;;;;;;;;;8.64;100.00;99666.47;5012056;28;19918;-87
2023/08/13 21:03:07;;;;;;;;;;;;;;;8.63;100.00;99663.88;5012133;28;19959;-89
2023/08/13 21:05:32;;;;;;;;;;;;;;;8.63;100.00;99667.41;4993681;28;20380;-88
2023/08/13 21:08:00;;;;;;;;;;;;;;;8.59;100.00;99668.41;5012571;28;19922;-89
2023/08/13 21:10:32;;;;;;;;;;;;;;;8.63;100.00;99671.78;5011143;28;20008;-87
2023/08/13 21:12:57;;;;;;;;;;;;;;;8.59;100.00;99675.50;4995133;28;19929;-94
2023/08/13 21:15:25;;;;;;;;;;;;;;;8.59;100.00;99686.06;5012101;28;19917;-86
2023/08/13 21:17:50;;;;;;;;;;;;;;;8.67;100.00;99681.34;5012472;28;19944;-86
2023/08/13 21:20:18;;;;;;;;;;;;;;;8.64;100.00;99666.47;4994679;28;20563;-86
2023/08/13 21:22:43;;;;;;;;;;;;;;;8.59;100.00;99655.22;4994640;28;20001;-90
2023/08/13 21:25:09;;;;;;;;;;;;;;;8.66;100.00;99648.78;5010954;28;20008;-91
2023/08/13 21:27:34;;;;;;;;;;;;;;;8.63;100.00;99648.91;4995354;28;20004;-90
2023/08/13 21:30:07;;;;;;;;;;;;;;;8.57;100.00;99648.25;5012744;28;19956;-86
2023/08/13 21:32:33;;;;;;;;;;;;;;;8.58;100.00;99645.56;4996240;28;19917;-93
2023/08/13 21:34:58;;;;;;;;;;;;;;;8.64;100.00;99644.47;5014364;28;19921;-88
2023/08/13 21:37:23;;;;;;;;;;;;;;;8.60;100.00;99643.75;4999621;28;19949;-90
2023/08/13 21:39:49;;;;;;;;;;;;;;;8.54;100.00;99650.09;4998279;28;20380;-90
2023/08/13 21:42:14;;;;;;;;;;;;;;;8.58;100.00;99656.13;5011676;28;19917;-89
2023/08/13 21:44:39;;;;;;;;;;;;;;;8.59;100.00;99654.34;5016402;28;19980;-89
2023/08/13 21:47:04;;;;;;;;;;;;;;;8.60;100.00;99649.03;4997753;28;19918;-86
2023/08/13 21:49:30;;;;;;;;;;;;;;;8.56;100.00;99651.81;4998515;28;20604;-91
2023/08/13 21:51:58;;;;;;;;;;;;;;;8.57;100.00;99653.53;5012462;28;20435;-85
2023/08/13 21:54:23;;;;;;;;;;;;;;;8.56;100.00;99652.69;4997440;28;19918;-90
2023/08/13 21:56:49;;;;;;;;;;;;;;;8.48;100.00;99655.59;4998006;28;19925;-89
2023/08/13 21:59:14;;;;;;;;;;;;;;;8.49;100.00;99652.03;4997941;28;19924;-90
2023/08/13 22:01:40;;;;;;;;;;;;;;;8.49;100.00;99654.69;5015504;28;19928;-88
2023/08/13 22:04:05;;;;;;;;;;;;;;;8.53;100.00;99658.06;4997996;28;19918;-90
2023/08/13 22:06:30;;;;;;;;;;;;;;;8.46;100.00;99646.88;5015657;28;19941;-87
2023/08/13 22:08:55;;;;;;;;;;;;;;;8.41;100.00;99655.84;4997183;28;20460;-92
2023/08/13 22:11:21;;;;;;;;;;;;;;;8.50;100.00;99653.78;4998374;28;20059;-88
2023/08/13 22:13:46;;;;;;;;;;;;;;;8.44;100.00;99661.94;4997893;28;19954;-87
2023/08/13 22:16:11;;;;;;;;;;;;;;;8.41;100.00;99662.00;5015319;28;19964;-90
2023/08/13 22:18:36;;;;;;;;;;;;;;;8.38;100.00;99664.75;4996532;28;19929;-91
2023/08/13 22:21:02;;;;;;;;;;;;;;;8.25;100.00;99653.75;5013083;28;19922;-90
2023/08/13 22:23:27;;;;;;;;;;;;;;;8.43;100.00;99656.66;4952624;28;19922;-87
2023/08/13 22:25:54;;;;;;;;;;;;;;;8.42;100.00;99655.78;4974149;28;20388;-90
2023/08/13 22:28:20;;;;;;;;;;;;;;;8.33;100.00;99658.78;4973044;28;19922;-89
2023/08/13 22:30:45;;;;;;;;;;;;;;;8.32;100.00;99662.31;4974195;28;19926;-92
2023/08/13 22:33:10;;;;;;;;;;;;;;;8.30;100.00;99672.09;4972122;28;19922;-87
2023/08/13 22:35:36;;;;;;;;;;;;;;;8.33;100.00;99666.69;4955591;28;19969;-89
2023/08/13 22:38:03;;;;;;;;;;;;;;;8.36;100.00;99677.16;4973087;28;20060;-89
2023/08/13 22:40:32;;;;;;;;;;;;;;;8.31;100.00;99676.44;4969945;28;20045;-89